createdAt,value
2018-02-24T06:22:29.659Z,-3.90
2018-02-24T06:25:01.551Z,-3.90
2018-02-24T06:27:33.437Z,-3.90
2018-02-24T06:30:05.339Z,-3.90
2018-02-24T06:32:37.982Z,-3.90
2018-02-24T06:35:09.867Z,-3.90
2018-02-24T06:37:42.511Z,-3.80
2018-02-24T06:40:14.723Z,-3.90
2018-02-24T06:42:46.625Z,-3.80
2018-02-24T06:45:18.522Z,-3.80
2018-02-24T06:47:50.404Z,-3.80
2018-02-24T06:50:22.287Z,-3.80
2018-02-24T06:52:54.168Z,-3.70
2018-02-24T06:55:26.133Z,-3.70
2018-02-24T06:57:58.020Z,-3.70
2018-02-24T07:00:29.921Z,-3.60
2018-02-24T07:03:02.076Z,-3.50
2018-02-24T07:05:33.968Z,-3.50
2018-02-24T07:08:05.851Z,-3.40
2018-02-24T07:10:37.737Z,-3.40
2018-02-24T07:13:10.374Z,-3.30
2018-02-24T07:15:42.263Z,-3.30
2018-02-24T07:18:14.143Z,-3.30
2018-02-24T07:20:46.812Z,-3.20
2018-02-24T07:23:19.447Z,-3.10
2018-02-24T07:25:51.342Z,-3.10
2018-02-24T07:28:23.218Z,-3.00
2018-02-24T07:30:55.869Z,-2.80
2018-02-24T07:33:27.743Z,-2.90
2018-02-24T07:35:59.635Z,-2.80
2018-02-24T07:38:31.511Z,-2.70
2018-02-24T07:41:03.400Z,-2.60
2018-02-24T07:43:35.287Z,-2.50
2018-02-24T07:46:07.166Z,-2.40
2018-02-24T07:48:39.077Z,-2.30
2018-02-24T07:51:11.004Z,-2.10
2018-02-24T07:53:43.723Z,-1.40
2018-02-24T07:56:15.680Z,-1.40
2018-02-24T07:58:47.566Z,-0.80
2018-02-24T08:01:19.496Z,-0.40
2018-02-24T08:03:51.463Z,-0.30
2018-02-24T08:06:23.359Z,-0.40
2018-02-24T08:08:56.001Z,-0.60
2018-02-24T08:11:28.655Z,-0.70
2018-02-24T08:14:00.541Z,-0.70
2018-02-24T08:16:32.432Z,-0.80
2018-02-24T08:19:05.082Z,-0.70
2018-02-24T08:21:36.975Z,-0.80
2018-02-24T08:24:09.874Z,-0.60
2018-02-24T08:26:41.766Z,-0.60
2018-02-24T08:29:13.647Z,-0.50
2018-02-24T08:31:45.530Z,-0.50
2018-02-24T08:34:17.468Z,-0.40
2018-02-24T08:36:52.210Z,-0.30
2018-02-24T08:39:24.104Z,-0.20
2018-02-24T08:41:56.769Z,0.00
2018-02-24T08:44:29.438Z,0.10
2018-02-24T08:47:02.190Z,0.20
2018-02-24T08:49:34.091Z,0.20
2018-02-24T08:52:06.738Z,0.40
2018-02-24T08:54:38.635Z,0.40
2018-02-24T08:57:11.371Z,0.50
2018-02-24T08:59:43.376Z,0.50
2018-02-24T09:02:16.040Z,0.70
2018-02-24T09:04:48.676Z,0.70
2018-02-24T09:07:20.653Z,0.70
2018-02-24T09:09:52.518Z,0.80
2018-02-24T09:12:24.406Z,0.90
2018-02-24T09:14:57.055Z,1.00
2018-02-24T09:17:28.958Z,1.00
2018-02-24T09:20:01.619Z,1.10
2018-02-24T09:22:34.287Z,1.20
2018-02-24T09:25:06.166Z,1.20
2018-02-24T09:27:38.822Z,1.40
2018-02-24T09:30:10.687Z,1.30
2018-02-24T09:32:42.579Z,1.50
2018-02-24T09:35:14.508Z,1.50
2018-02-24T09:37:46.488Z,1.50
2018-02-24T09:40:19.127Z,1.70
2018-02-24T09:42:51.014Z,1.60
2018-02-24T09:45:23.209Z,1.70
2018-02-24T09:47:55.093Z,1.80
2018-02-24T09:50:27.234Z,1.80
2018-02-24T09:52:59.116Z,1.90
2018-02-24T09:55:31.000Z,1.90
2018-02-24T09:58:02.888Z,2.00
2018-02-24T10:00:35.526Z,2.10
2018-02-24T10:03:07.661Z,2.10
2018-02-24T10:05:39.847Z,2.10
2018-02-24T10:08:11.736Z,2.20
2018-02-24T10:10:43.601Z,2.30
2018-02-24T10:13:15.493Z,2.30
2018-02-24T10:15:48.149Z,2.50
2018-02-24T10:18:20.035Z,2.40
2018-02-24T10:20:52.928Z,2.40
2018-02-24T10:23:24.830Z,2.50
2018-02-24T10:25:56.712Z,2.50
2018-02-24T10:28:28.596Z,2.60
2018-02-24T10:31:01.229Z,2.60
2018-02-24T10:33:33.116Z,2.60
2018-02-24T10:36:04.979Z,2.70
2018-02-24T10:38:37.643Z,2.80
2018-02-24T10:41:09.511Z,2.80
2018-02-24T10:43:41.706Z,2.80
2018-02-24T10:46:13.574Z,2.90
2018-02-24T10:48:45.698Z,2.90
2018-02-24T10:51:17.571Z,2.90
2018-02-24T10:53:50.335Z,3.00
2018-02-24T10:56:22.203Z,3.00
2018-02-24T10:58:54.399Z,3.00
2018-02-24T11:01:26.268Z,3.00
2018-02-24T11:03:58.423Z,3.00
2018-02-24T11:06:30.295Z,3.00
2018-02-24T11:09:02.195Z,3.00
2018-02-24T11:11:34.204Z,3.00
2018-02-24T11:14:06.847Z,3.10
2018-02-24T11:16:38.785Z,3.10
2018-02-24T11:19:10.675Z,3.10
2018-02-24T11:21:42.555Z,3.20
2018-02-24T11:24:15.208Z,3.20
2018-02-24T11:26:47.313Z,3.30
2018-02-24T11:29:19.195Z,3.30
2018-02-24T11:31:52.072Z,3.30
2018-02-24T11:34:23.958Z,3.30
2018-02-24T11:36:55.827Z,3.40
2018-02-24T11:39:28.039Z,3.40
2018-02-24T11:41:59.955Z,3.50
2018-02-24T11:44:31.911Z,3.50
2018-02-24T11:47:03.795Z,3.50
2018-02-24T11:49:35.991Z,3.50
2018-02-24T11:52:07.903Z,3.50
2018-02-24T11:54:39.867Z,3.50
2018-02-24T11:57:11.820Z,3.60
2018-02-24T11:59:43.692Z,3.60
2018-02-24T12:02:16.331Z,3.80
2018-02-24T12:04:48.332Z,3.70
2018-02-24T12:07:21.848Z,3.80
2018-02-24T12:09:54.095Z,3.80
2018-02-24T12:12:26.047Z,3.90
2018-02-24T12:14:57.942Z,3.90
2018-02-24T12:17:29.820Z,3.90
2018-02-24T12:20:02.467Z,3.90
2018-02-24T12:22:34.351Z,3.90
2018-02-24T12:25:07.251Z,4.00
2018-02-24T12:27:39.447Z,4.00
2018-02-24T12:30:11.324Z,4.10
2018-02-24T12:32:43.280Z,4.10
2018-02-24T12:35:15.256Z,4.00
2018-02-24T12:37:47.127Z,4.00
2018-02-24T12:40:19.014Z,4.00
2018-02-24T12:42:51.971Z,3.90
2018-02-24T12:45:23.856Z,3.90
2018-02-24T12:47:56.586Z,4.00
2018-02-24T12:50:28.551Z,4.00
2018-02-24T12:53:00.419Z,4.00
2018-02-24T12:55:32.371Z,4.10
2018-02-24T12:58:04.255Z,4.10
2018-02-24T13:00:36.194Z,4.20
2018-02-24T13:03:08.518Z,4.20
2018-02-24T13:05:40.421Z,4.30
2018-02-24T13:08:12.392Z,4.30
2018-02-24T13:10:44.283Z,4.30
2018-02-24T13:13:16.928Z,4.40
2018-02-24T13:15:48.839Z,4.40
2018-02-24T13:18:20.751Z,4.40
2018-02-24T13:20:52.648Z,4.50
2018-02-24T13:23:25.400Z,4.50
2018-02-24T13:25:57.352Z,4.40
2018-02-24T13:28:29.226Z,4.50
2018-02-24T13:31:01.112Z,4.40
2018-02-24T13:33:33.764Z,4.40
2018-02-24T13:36:05.647Z,4.30
2018-02-24T13:38:38.288Z,4.40
2018-02-24T13:41:10.248Z,4.40
2018-02-24T13:43:42.115Z,4.40
2018-02-24T13:46:14.068Z,4.30
2018-02-24T13:48:46.039Z,4.40
2018-02-24T13:51:17.923Z,4.40
2018-02-24T13:53:50.555Z,4.50
2018-02-24T13:56:22.436Z,4.50
2018-02-24T13:58:54.392Z,4.50
2018-02-24T14:01:26.306Z,4.40
2018-02-24T14:03:59.026Z,4.50
2018-02-24T14:06:31.000Z,4.40
2018-02-24T14:09:02.867Z,4.40
2018-02-24T14:11:34.767Z,4.40
2018-02-24T14:14:06.655Z,4.40
2018-02-24T14:16:38.535Z,4.40
2018-02-24T14:19:10.399Z,4.40
2018-02-24T14:21:42.626Z,4.40
2018-02-24T14:24:14.504Z,4.30
2018-02-24T14:26:46.383Z,4.20
2018-02-24T14:29:18.260Z,4.20
2018-02-24T14:31:50.146Z,4.20
2018-02-24T14:34:22.793Z,4.10
2018-02-24T14:36:54.677Z,4.00
2018-02-24T14:39:27.308Z,4.00
2018-02-24T14:41:59.194Z,4.00
2018-02-24T14:44:31.056Z,3.90
2018-02-24T14:47:02.938Z,3.90
2018-02-24T14:49:35.578Z,3.90
2018-02-24T14:52:07.549Z,3.90
2018-02-24T14:54:39.519Z,3.90
2018-02-24T14:57:11.412Z,3.90
2018-02-24T14:59:44.058Z,3.80
2018-02-24T15:02:15.940Z,3.80
2018-02-24T15:04:48.606Z,3.80
2018-02-24T15:07:21.252Z,3.70
2018-02-24T15:09:53.263Z,3.70
2018-02-24T15:12:25.156Z,3.70
2018-02-24T15:14:57.040Z,3.70
2018-02-24T15:17:28.963Z,3.60
2018-02-24T15:20:00.855Z,3.50
2018-02-24T15:22:32.758Z,3.60
2018-02-24T15:25:05.403Z,3.40
2018-02-24T15:27:37.288Z,3.40
2018-02-24T15:30:09.171Z,3.40
2018-02-24T15:32:41.338Z,3.30
2018-02-24T15:35:13.203Z,3.30
2018-02-24T15:37:45.099Z,3.20
2018-02-24T15:40:16.999Z,3.10
2018-02-24T15:42:49.656Z,3.10
2018-02-24T15:45:21.528Z,3.00
2018-02-24T15:47:53.411Z,3.00
2018-02-24T15:50:26.053Z,2.90
2018-02-24T15:52:57.932Z,2.90
2018-02-24T15:55:29.803Z,2.90
2018-02-24T15:58:02.458Z,2.70
2018-02-24T16:00:34.410Z,2.70
2018-02-24T16:03:06.311Z,2.60
2018-02-24T16:05:39.159Z,2.50
2018-02-24T16:08:11.042Z,2.50
2018-02-24T16:10:43.704Z,2.40
2018-02-24T16:13:15.595Z,2.40
2018-02-24T16:15:47.464Z,2.40
2018-02-24T16:18:19.357Z,2.40
2018-02-24T16:20:51.229Z,2.30
2018-02-24T16:23:23.542Z,2.30
2018-02-24T16:25:55.405Z,2.20
2018-02-24T16:28:27.282Z,2.20
2018-02-24T16:30:59.172Z,2.10
2018-02-24T16:33:31.149Z,2.10
2018-02-24T16:36:03.464Z,2.00
2018-02-24T16:38:35.356Z,2.00
2018-02-24T16:41:07.235Z,2.00
2018-02-24T16:43:39.132Z,1.90
2018-02-24T16:46:11.779Z,1.90
2018-02-24T16:48:43.681Z,1.80
2018-02-24T16:51:16.344Z,1.80
2018-02-24T16:53:49.038Z,1.70
2018-02-24T16:56:21.200Z,1.70
2018-02-24T16:58:53.104Z,1.70
2018-02-24T17:01:24.970Z,1.60
2018-02-24T17:03:56.858Z,1.60
2018-02-24T17:06:28.737Z,1.50
2018-02-24T17:09:00.628Z,1.50
2018-02-24T17:11:32.523Z,1.50
2018-02-24T17:14:04.415Z,1.40
2018-02-24T17:16:37.040Z,1.40
2018-02-24T17:19:08.928Z,1.40
2018-02-24T17:21:40.806Z,1.30
2018-02-24T17:24:13.448Z,1.30
2018-02-24T17:26:45.327Z,1.20
2018-02-24T17:29:17.216Z,1.20
2018-02-24T17:31:49.103Z,1.20
2018-02-24T17:34:21.045Z,1.20
2018-02-24T17:36:52.916Z,1.10
2018-02-24T17:39:24.818Z,1.10
2018-02-24T17:41:56.692Z,1.10
2018-02-24T17:44:28.607Z,1.00
2018-02-24T17:47:00.754Z,1.00
2018-02-24T17:49:32.635Z,1.00
2018-02-24T17:52:04.511Z,0.90
2018-02-24T17:54:36.394Z,0.90
2018-02-24T17:57:09.071Z,0.80
2018-02-24T17:59:41.268Z,0.80
2018-02-24T18:02:13.143Z,0.80
2018-02-24T18:04:45.028Z,0.80
2018-02-24T18:07:16.912Z,0.70
2018-02-24T18:09:48.800Z,0.70
2018-02-24T18:12:21.698Z,0.60
2018-02-24T18:14:53.587Z,0.60
2018-02-24T18:17:25.463Z,0.60
2018-02-24T18:19:57.579Z,0.60
2018-02-24T18:22:29.438Z,0.50
2018-02-24T18:25:01.319Z,0.50
2018-02-24T18:27:33.201Z,0.50
2018-02-24T18:30:05.081Z,0.50
2018-02-24T18:32:37.290Z,0.50
2018-02-24T18:35:09.168Z,0.40
2018-02-24T18:37:41.042Z,0.40
2018-02-24T18:40:13.172Z,0.40
2018-02-24T18:42:45.036Z,0.40
2018-02-24T18:45:16.920Z,0.40
2018-02-24T18:47:48.782Z,0.50
2018-02-24T18:50:20.667Z,0.50
2018-02-24T18:52:52.532Z,0.50
2018-02-24T18:55:24.423Z,0.50
2018-02-24T18:57:57.059Z,0.50
2018-02-24T19:00:29.275Z,0.40
2018-02-24T19:03:01.153Z,0.40
2018-02-24T19:05:33.044Z,0.40
2018-02-24T19:08:04.920Z,0.40
2018-02-24T19:10:36.802Z,0.40
2018-02-24T19:13:09.700Z,0.30
2018-02-24T19:15:41.595Z,0.30
2018-02-24T19:18:14.296Z,0.30
2018-02-24T19:20:46.184Z,0.30
2018-02-24T19:23:18.814Z,0.30
2018-02-24T19:25:50.702Z,0.20
2018-02-24T19:28:22.568Z,0.20
2018-02-24T19:30:54.447Z,0.20
2018-02-24T19:33:27.083Z,0.20
2018-02-24T19:35:58.988Z,0.20
2018-02-24T19:38:31.628Z,0.20
2018-02-24T19:41:03.510Z,0.20
2018-02-24T19:43:35.379Z,0.20
2018-02-24T19:46:08.029Z,0.20
2018-02-24T19:48:39.923Z,0.20
2018-02-24T19:51:12.580Z,0.20
2018-02-24T19:53:44.444Z,0.20
2018-02-24T19:56:16.316Z,0.20
2018-02-24T19:58:48.963Z,0.20
2018-02-24T20:01:20.839Z,0.10
2018-02-24T20:03:52.931Z,0.10
2018-02-24T20:06:24.822Z,0.10
2018-02-24T20:08:56.704Z,0.10
2018-02-24T20:11:28.591Z,0.10
2018-02-24T20:14:01.236Z,0.00
2018-02-24T20:16:33.355Z,0.00
2018-02-24T20:19:05.219Z,0.00
2018-02-24T20:21:37.110Z,0.00
2018-02-24T20:24:08.981Z,0.00
2018-02-24T20:26:40.883Z,0.00
2018-02-24T20:29:13.524Z,-0.10
2018-02-24T20:31:46.172Z,-0.10
2018-02-24T20:34:18.039Z,-0.10
2018-02-24T20:36:50.281Z,-0.10
2018-02-24T20:39:22.146Z,-0.10
2018-02-24T20:41:54.044Z,-0.10
2018-02-24T20:44:26.004Z,-0.20
2018-02-24T20:46:57.975Z,-0.20
2018-02-24T20:49:29.859Z,-0.20
2018-02-24T20:52:01.744Z,-0.20
2018-02-24T20:54:33.664Z,-0.20
2018-02-24T20:57:05.615Z,-0.20
2018-02-24T20:59:37.516Z,-0.20
2018-02-24T21:02:10.183Z,-0.20
